createdAt,value
2017-05-13T00:01:22.715Z,94808.62
2017-05-13T00:03:48.936Z,94817.55
2017-05-13T00:06:15.838Z,94808.97
2017-05-13T00:08:42.124Z,94824.10
2017-05-13T00:11:13.335Z,94815.44
2017-05-13T00:13:40.246Z,94819.49
2017-05-13T00:16:06.421Z,94820.03
2017-05-13T00:18:33.469Z,94820.36
2017-05-13T00:21:00.372Z,94824.83
2017-05-13T00:23:26.674Z,94825.41
2017-05-13T00:25:52.947Z,94818.29
2017-05-13T00:28:19.132Z,94820.86
2017-05-13T00:30:46.082Z,94824.59
2017-05-13T00:33:12.267Z,94825.41
2017-05-13T00:35:38.509Z,94827.44
2017-05-13T00:38:04.685Z,94830.67
2017-05-13T00:40:31.634Z,94829.31
2017-05-13T00:42:58.714Z,94826.90
2017-05-13T00:45:24.904Z,94831.31
2017-05-13T00:47:51.053Z,94826.33
2017-05-13T00:50:17.964Z,94825.83
2017-05-13T00:52:44.133Z,94831.43
2017-05-13T00:55:11.312Z,94843.41
2017-05-13T00:57:37.469Z,94831.43
2017-05-13T01:00:03.660Z,94838.56
2017-05-13T01:02:30.592Z,94837.12
2017-05-13T01:04:56.803Z,94842.63
2017-05-13T01:07:23.005Z,94847.00
2017-05-13T01:09:49.161Z,94847.48
2017-05-13T01:12:15.373Z,94853.83
2017-05-13T01:14:41.541Z,94846.30
2017-05-13T01:17:08.466Z,94856.55
2017-05-13T01:19:34.743Z,94852.30
2017-05-13T01:22:00.898Z,94854.00
2017-05-13T01:24:27.797Z,94853.32
2017-05-13T01:26:53.973Z,94859.30
2017-05-13T01:29:20.908Z,94848.48
2017-05-13T01:31:48.421Z,94858.76
2017-05-13T01:34:14.625Z,94858.58
2017-05-13T01:36:41.533Z,94857.66
2017-05-13T01:39:07.780Z,94863.28
2017-05-13T01:41:33.960Z,94859.20
2017-05-13T01:44:00.349Z,94865.34
2017-05-13T01:46:26.517Z,94865.94
2017-05-13T01:48:52.802Z,94872.25
2017-05-13T01:51:19.039Z,94870.02
2017-05-13T01:53:45.337Z,94869.41
2017-05-13T01:56:11.509Z,94867.91
2017-05-13T01:58:37.676Z,94877.61
2017-05-13T02:01:04.733Z,94872.76
2017-05-13T02:03:31.710Z,94873.95
2017-05-13T02:05:57.889Z,94876.73
2017-05-13T02:08:24.117Z,94882.71
2017-05-13T02:10:50.297Z,94884.02
2017-05-13T02:13:16.504Z,94892.44
2017-05-13T02:15:42.661Z,94890.21
2017-05-13T02:18:08.865Z,94891.13
2017-05-13T02:20:35.044Z,94894.32
2017-05-13T02:23:01.229Z,94899.55
2017-05-13T02:25:27.390Z,94897.30
2017-05-13T02:27:54.285Z,94899.36
2017-05-13T02:30:20.429Z,94897.30
2017-05-13T02:32:46.685Z,94902.55
2017-05-13T02:35:12.836Z,94904.97
2017-05-13T02:37:39.753Z,94905.88
2017-05-13T02:40:05.953Z,94911.47
2017-05-13T02:42:32.185Z,94913.90
2017-05-13T02:44:58.488Z,94919.10
2017-05-13T02:47:25.397Z,94918.75
2017-05-13T02:49:51.585Z,94919.48
2017-05-13T02:52:17.785Z,94923.23
2017-05-13T02:54:43.962Z,94928.84
2017-05-13T02:57:10.185Z,94924.00
2017-05-13T02:59:36.439Z,94926.98
2017-05-13T03:02:02.740Z,94928.08
2017-05-13T03:04:29.641Z,94934.98
2017-05-13T03:06:55.825Z,94933.86
2017-05-13T03:09:22.737Z,94931.44
2017-05-13T03:11:48.919Z,94930.32
2017-05-13T03:14:15.846Z,94934.80
2017-05-13T03:16:42.001Z,94934.97
2017-05-13T03:19:08.407Z,94939.83
2017-05-13T03:21:34.790Z,94939.67
2017-05-13T03:24:01.006Z,94935.00
2017-05-13T03:26:27.929Z,94943.02
2017-05-13T03:28:54.070Z,94938.16
2017-05-13T03:31:20.217Z,94939.52
2017-05-13T03:33:47.287Z,94939.14
2017-05-13T03:36:13.501Z,94944.18
2017-05-13T03:38:40.435Z,94940.27
2017-05-13T03:41:06.593Z,94935.06
2017-05-13T03:43:33.700Z,94943.64
2017-05-13T03:45:59.905Z,94947.92
2017-05-13T03:48:26.129Z,94946.98
2017-05-13T03:50:52.302Z,94952.20
2017-05-13T03:53:18.473Z,94955.36
2017-05-13T03:55:45.406Z,94953.88
2017-05-13T03:58:11.703Z,94950.51
2017-05-13T04:00:44.169Z,94952.18
2017-05-13T04:03:10.402Z,94962.98
2017-05-13T04:05:36.565Z,94961.49
2017-05-13T04:08:02.757Z,94960.57
2017-05-13T04:10:28.947Z,94954.94
2017-05-13T04:12:55.135Z,94956.27
2017-05-13T04:15:21.337Z,94959.42
2017-05-13T04:17:48.366Z,94963.55
2017-05-13T04:20:14.521Z,94968.20
2017-05-13T04:22:41.434Z,94973.80
2017-05-13T04:25:07.633Z,94981.08
2017-05-13T04:27:33.855Z,94981.27
2017-05-13T04:30:00.006Z,94982.41
2017-05-13T04:32:26.190Z,94992.12
2017-05-13T04:34:53.122Z,94987.09
2017-05-13T04:37:19.358Z,94994.54
2017-05-13T04:39:45.618Z,94993.03
2017-05-13T04:42:14.057Z,94994.70
2017-05-13T04:44:40.213Z,94997.67
2017-05-13T04:47:06.389Z,95010.16
2017-05-13T04:49:33.281Z,95010.91
2017-05-13T04:51:59.457Z,95013.88
2017-05-13T04:54:26.433Z,95019.10
2017-05-13T04:56:52.601Z,95018.33
2017-05-13T04:59:19.558Z,95023.31
2017-05-13T05:01:45.731Z,95029.25
2017-05-13T05:04:12.655Z,95031.08
2017-05-13T05:06:38.892Z,95038.71
2017-05-13T05:09:05.842Z,95037.23
2017-05-13T05:11:32.737Z,95036.69
2017-05-13T05:13:58.895Z,95040.77
2017-05-13T05:16:25.143Z,95041.33
2017-05-13T05:18:51.335Z,95043.58
2017-05-13T05:21:17.498Z,95048.45
2017-05-13T05:23:43.665Z,95056.09
2017-05-13T05:26:09.820Z,95061.85
2017-05-13T05:28:36.017Z,95065.76
2017-05-13T05:31:02.503Z,95058.86
2017-05-13T05:33:28.663Z,95068.16
2017-05-13T05:35:54.806Z,95064.56
2017-05-13T05:38:21.055Z,95066.52
2017-05-13T05:40:47.209Z,95078.56
2017-05-13T05:43:13.440Z,95077.50
2017-05-13T05:45:40.393Z,95078.13
2017-05-13T05:48:07.290Z,95080.31
2017-05-13T05:50:34.197Z,95074.27
2017-05-13T05:53:01.157Z,95086.17
2017-05-13T05:55:27.333Z,95078.73
2017-05-13T05:57:53.556Z,95090.61
2017-05-13T06:00:20.489Z,95089.79
2017-05-13T06:02:46.665Z,95090.09
2017-05-13T06:05:12.878Z,95091.91
2017-05-13T06:07:39.062Z,95099.36
2017-05-13T06:10:05.957Z,95097.80
2017-05-13T06:12:32.133Z,95103.71
2017-05-13T06:14:58.293Z,95109.23
2017-05-13T06:17:24.537Z,95105.23
2017-05-13T06:19:50.681Z,95109.09
2017-05-13T06:22:16.857Z,95103.75
2017-05-13T06:24:43.023Z,95108.91
2017-05-13T06:27:09.210Z,95114.39
2017-05-13T06:29:35.409Z,95113.27
2017-05-13T06:32:01.585Z,95114.73
2017-05-13T06:34:29.214Z,95128.80
2017-05-13T06:36:56.097Z,95129.77
2017-05-13T06:39:23.737Z,95132.03
2017-05-13T06:41:49.881Z,95118.78
2017-05-13T06:44:16.133Z,95123.69
2017-05-13T06:46:43.025Z,95131.07
2017-05-13T06:49:09.934Z,95130.41
2017-05-13T06:51:36.095Z,95138.03
2017-05-13T06:54:03.029Z,95138.72
2017-05-13T06:56:29.206Z,95135.08
2017-05-13T06:58:55.366Z,95142.05
2017-05-13T07:01:21.563Z,95145.33
2017-05-13T07:03:47.805Z,95142.01
2017-05-13T07:06:13.994Z,95147.62
2017-05-13T07:08:40.145Z,95148.02
2017-05-13T07:11:08.141Z,95154.20
2017-05-13T07:13:34.313Z,95157.25
2017-05-13T07:16:00.465Z,95164.14
2017-05-13T07:18:26.619Z,95165.48
2017-05-13T07:20:53.526Z,95162.45
2017-05-13T07:23:19.699Z,95176.09
2017-05-13T07:25:46.961Z,95178.93
2017-05-13T07:28:13.869Z,95183.75
2017-05-13T07:30:40.017Z,95186.45
2017-05-13T07:33:06.173Z,95188.62
2017-05-13T07:35:32.406Z,95194.02
2017-05-13T07:37:59.301Z,95202.44
2017-05-13T07:40:25.498Z,95200.17
2017-05-13T07:42:52.589Z,95197.42
2017-05-13T07:45:18.786Z,95204.96
2017-05-13T07:47:45.685Z,95197.98
2017-05-13T07:50:13.426Z,95203.94
2017-05-13T07:52:39.613Z,95196.75
2017-05-13T07:55:05.763Z,95205.44
2017-05-13T07:57:32.686Z,95201.69
2017-05-13T07:59:58.829Z,95200.23
2017-05-13T08:02:25.002Z,95200.84
2017-05-13T08:04:51.183Z,95210.45
2017-05-13T08:07:17.343Z,95198.04
2017-05-13T08:09:44.225Z,95208.56
2017-05-13T08:12:10.425Z,95198.81
2017-05-13T08:14:37.357Z,95202.53
2017-05-13T08:17:03.713Z,95210.28
2017-05-13T08:19:30.760Z,95207.33
2017-05-13T08:21:57.113Z,95210.23
2017-05-13T08:24:23.579Z,95212.29
2017-05-13T08:26:49.743Z,95206.12
2017-05-13T08:29:17.462Z,95209.13
2017-05-13T08:31:46.655Z,95201.47
2017-05-13T08:34:13.660Z,95204.84
2017-05-13T08:36:40.000Z,95204.96
2017-05-13T08:39:06.540Z,95208.13
2017-05-13T08:41:34.432Z,95209.61
2017-05-13T08:44:01.092Z,95206.65
2017-05-13T08:46:27.401Z,95204.69
2017-05-13T08:48:54.494Z,95205.45
2017-05-13T08:51:20.821Z,95216.36
2017-05-13T08:53:47.724Z,95214.99
2017-05-13T08:56:14.298Z,95212.81
2017-05-13T08:58:42.248Z,95222.80
2017-05-13T09:01:08.910Z,95218.50
2017-05-13T09:03:36.308Z,95217.80
2017-05-13T09:06:03.820Z,95217.20
2017-05-13T09:08:30.069Z,95212.81
2017-05-13T09:10:56.750Z,95215.15
2017-05-13T09:13:25.937Z,95217.05
2017-05-13T09:15:52.264Z,95219.70
2017-05-13T09:18:18.926Z,95217.17
2017-05-13T09:20:45.174Z,95217.53
2017-05-13T09:23:12.233Z,95215.25
2017-05-13T09:25:38.657Z,95214.41
2017-05-13T09:28:05.600Z,95215.91
2017-05-13T09:30:31.777Z,95218.87
2017-05-13T09:32:57.970Z,95217.19
2017-05-13T09:35:24.173Z,95218.05
2017-05-13T09:37:50.424Z,95223.69
2017-05-13T09:40:17.375Z,95230.65
2017-05-13T09:42:43.612Z,95234.59
2017-05-13T09:45:10.544Z,95242.19
2017-05-13T09:47:36.790Z,95245.03
2017-05-13T09:50:04.978Z,95243.83
2017-05-13T09:52:31.346Z,95239.92
2017-05-13T09:54:57.886Z,95239.60
2017-05-13T09:57:24.974Z,95242.73
2017-05-13T09:59:51.344Z,95237.39
2017-05-13T10:02:17.745Z,95231.19
2017-05-13T10:04:45.737Z,95226.58
2017-05-13T10:07:12.592Z,95226.69
2017-05-13T10:09:39.866Z,95225.73
2017-05-13T10:12:06.189Z,95223.16
2017-05-13T10:14:32.628Z,95221.87
2017-05-13T10:16:59.693Z,95216.98
2017-05-13T10:19:27.665Z,95219.27
2017-05-13T10:21:57.276Z,95220.20
2017-05-13T10:24:23.869Z,95229.91
2017-05-13T10:26:50.647Z,95230.83
2017-05-13T10:29:17.783Z,95228.13
2017-05-13T10:31:45.249Z,95216.95
2017-05-13T10:34:11.677Z,95221.09
2017-05-13T10:36:38.933Z,95226.99
2017-05-13T10:39:05.696Z,95222.32
2017-05-13T10:41:32.519Z,95214.62
2017-05-13T10:43:59.419Z,95213.48
2017-05-13T10:46:27.646Z,95210.78
2017-05-13T10:48:54.183Z,95222.65
2017-05-13T10:51:20.765Z,95224.08
2017-05-13T10:53:47.563Z,95223.36
2017-05-13T10:56:13.766Z,95219.98
2017-05-13T10:58:40.923Z,95212.50
2017-05-13T11:01:07.415Z,95202.92
2017-05-13T11:03:34.464Z,95200.67
2017-05-13T11:06:00.904Z,95200.06
2017-05-13T11:08:27.311Z,95200.45
2017-05-13T11:10:53.550Z,95199.84
2017-05-13T11:13:19.722Z,95197.08
2017-05-13T11:15:46.081Z,95200.13
2017-05-13T11:18:12.407Z,95200.55
2017-05-13T11:20:38.893Z,95196.20
2017-05-13T11:23:05.311Z,95191.37
2017-05-13T11:25:31.677Z,95203.95
2017-05-13T11:27:58.053Z,95210.61
2017-05-13T11:30:24.305Z,95201.55
2017-05-13T11:32:50.538Z,95210.80
2017-05-13T11:35:17.836Z,95206.67
2017-05-13T11:37:44.117Z,95206.04
2017-05-13T11:40:13.545Z,95212.07
2017-05-13T11:42:40.681Z,95210.91
2017-05-13T11:45:06.933Z,95210.22
2017-05-13T11:47:33.909Z,95211.10
2017-05-13T11:50:00.066Z,95220.02
2017-05-13T11:52:26.293Z,95220.41
2017-05-13T11:54:53.297Z,95225.03
2017-05-13T11:57:19.445Z,95223.13
2017-05-13T11:59:46.606Z,95232.09
2017-05-13T12:02:13.589Z,95230.15
2017-05-13T12:04:39.786Z,95226.17
2017-05-13T12:07:06.798Z,95222.36
2017-05-13T12:09:33.086Z,95220.37
2017-05-13T12:11:59.580Z,95228.44
2017-05-13T12:14:27.550Z,95229.36
2017-05-13T12:16:53.842Z,95236.77
2017-05-13T12:19:20.055Z,95234.75
2017-05-13T12:21:47.402Z,95232.03
2017-05-13T12:24:14.381Z,95231.66
2017-05-13T12:26:41.385Z,95234.77
2017-05-13T12:29:08.418Z,95235.07
2017-05-13T12:31:34.613Z,95242.33
2017-05-13T12:34:01.618Z,95241.09
2017-05-13T12:36:28.701Z,95231.27
2017-05-13T12:38:55.714Z,95229.20
2017-05-13T12:41:21.909Z,95230.48
2017-05-13T12:43:48.854Z,95223.69
2017-05-13T12:46:15.877Z,95213.84
2017-05-13T12:48:42.885Z,95217.22
2017-05-13T12:51:10.161Z,95219.14
2017-05-13T12:53:36.666Z,95212.66
2017-05-13T12:56:05.084Z,95216.16
2017-05-13T12:58:31.314Z,95215.98
2017-05-13T13:00:57.857Z,95212.18
2017-05-13T13:03:29.135Z,95218.59
2017-05-13T13:05:55.641Z,95218.27
2017-05-13T13:08:21.850Z,95216.22
2017-05-13T13:10:48.081Z,95226.05
2017-05-13T13:13:15.359Z,95216.88
2017-05-13T13:15:41.717Z,95212.97
2017-05-13T13:18:07.909Z,95215.05
2017-05-13T13:20:34.834Z,95224.67
2017-05-13T13:23:02.144Z,95224.59
2017-05-13T13:25:29.217Z,95221.63
2017-05-13T13:27:55.651Z,95217.34
2017-05-13T13:30:21.886Z,95217.09
2017-05-13T13:32:49.998Z,95215.36
2017-05-13T13:35:17.072Z,95218.44
2017-05-13T13:37:44.121Z,95221.41
2017-05-13T13:40:11.098Z,95214.59
2017-05-13T13:42:37.349Z,95213.64
2017-05-13T13:45:09.563Z,95212.13
2017-05-13T13:47:35.825Z,95208.03
2017-05-13T13:50:01.997Z,95209.94
2017-05-13T13:52:28.170Z,95202.16
2017-05-13T13:54:55.149Z,95208.86
2017-05-13T13:57:21.386Z,95208.28
2017-05-13T13:59:51.149Z,95212.45
2017-05-13T14:02:18.908Z,95210.34
2017-05-13T14:04:45.394Z,95203.23
2017-05-13T14:07:12.356Z,95204.09
2017-05-13T14:09:38.679Z,95201.52
2017-05-13T14:12:05.769Z,95200.94
2017-05-13T14:14:32.017Z,95195.80
2017-05-13T14:16:58.219Z,95196.69
2017-05-13T14:19:24.468Z,95195.81
2017-05-13T14:21:50.726Z,95193.70
2017-05-13T14:24:17.189Z,95198.87
2017-05-13T14:26:43.462Z,95195.66
2017-05-13T14:29:09.693Z,95195.88
2017-05-13T14:31:36.238Z,95195.42
2017-05-13T14:34:02.578Z,95193.55
2017-05-13T14:36:29.607Z,95189.91
2017-05-13T14:38:57.590Z,95192.25
2017-05-13T14:41:23.839Z,95188.63
2017-05-13T14:43:50.033Z,95189.63
2017-05-13T14:46:16.326Z,95189.14
2017-05-13T14:48:44.135Z,95187.24
2017-05-13T14:51:11.881Z,95180.89
2017-05-13T14:53:38.211Z,95192.48
2017-05-13T14:56:04.404Z,95190.42
2017-05-13T14:58:31.357Z,95196.89
2017-05-13T15:00:57.544Z,95197.86
2017-05-13T15:03:23.725Z,95200.39
2017-05-13T15:05:50.321Z,95204.84
2017-05-13T15:08:16.659Z,95204.02
2017-05-13T15:10:45.212Z,95205.89
2017-05-13T15:13:11.459Z,95213.54
2017-05-13T15:15:40.824Z,95214.03
2017-05-13T15:18:07.176Z,95220.84
2017-05-13T15:20:33.426Z,95228.02
2017-05-13T15:22:59.637Z,95222.67
2017-05-13T15:25:26.569Z,95224.49
2017-05-13T15:27:53.514Z,95230.03
2017-05-13T15:30:19.850Z,95231.94
2017-05-13T15:32:46.867Z,95227.20
2017-05-13T15:35:13.053Z,95223.13
2017-05-13T15:37:40.021Z,95227.09
2017-05-13T15:40:06.253Z,95228.61
2017-05-13T15:42:32.470Z,95235.05
2017-05-13T15:44:59.422Z,95232.35
2017-05-13T15:47:26.384Z,95228.53
2017-05-13T15:49:52.565Z,95232.86
2017-05-13T15:52:18.763Z,95225.23
2017-05-13T15:54:44.933Z,95226.29
2017-05-13T15:57:11.209Z,95239.41
2017-05-13T15:59:38.188Z,95234.80
2017-05-13T16:02:05.219Z,95228.77
2017-05-13T16:04:31.395Z,95231.36
2017-05-13T16:06:57.606Z,95226.04
2017-05-13T16:09:23.821Z,95234.82
2017-05-13T16:11:50.097Z,95234.45
2017-05-13T16:14:16.289Z,95224.24
2017-05-13T16:16:43.271Z,95224.35
2017-05-13T16:19:09.460Z,95221.34
2017-05-13T16:21:36.436Z,95226.04
2017-05-13T16:24:02.674Z,95223.58
2017-05-13T16:26:28.892Z,95224.55
2017-05-13T16:28:55.845Z,95234.66
2017-05-13T16:31:22.064Z,95229.44
2017-05-13T16:33:49.177Z,95230.69
2017-05-13T16:36:15.449Z,95238.63
2017-05-13T16:38:42.365Z,95236.56
2017-05-13T16:41:09.385Z,95220.12
2017-05-13T16:43:35.611Z,95222.73
2017-05-13T16:46:01.837Z,95227.49
2017-05-13T16:48:28.067Z,95224.02
2017-05-13T16:50:54.294Z,95219.34
2017-05-13T16:53:21.254Z,95218.50
2017-05-13T16:55:48.221Z,95224.85
2017-05-13T16:58:14.467Z,95232.38
2017-05-13T17:00:40.681Z,95235.94
2017-05-13T17:03:06.906Z,95232.48
2017-05-13T17:05:33.881Z,95227.14
2017-05-13T17:08:00.101Z,95228.44
2017-05-13T17:10:27.045Z,95227.54
2017-05-13T17:12:53.262Z,95238.27
2017-05-13T17:15:20.263Z,95246.70
2017-05-13T17:17:46.518Z,95246.95
2017-05-13T17:20:13.466Z,95242.70
2017-05-13T17:22:39.661Z,95245.08
2017-05-13T17:25:05.885Z,95250.49
2017-05-13T17:27:32.113Z,95253.87
2017-05-13T17:29:59.085Z,95255.45
2017-05-13T17:32:25.248Z,95265.34
2017-05-13T17:34:59.420Z,95263.27
2017-05-13T17:37:26.466Z,95281.41
2017-05-13T17:39:53.369Z,95289.22
2017-05-13T17:42:19.549Z,95288.55
2017-05-13T17:44:47.414Z,95288.66
2017-05-13T17:47:14.397Z,95292.96
2017-05-13T17:49:40.581Z,95299.08
2017-05-13T17:52:07.517Z,95302.84
2017-05-13T17:54:33.820Z,95304.73
2017-05-13T17:57:00.058Z,95311.06
2017-05-13T17:59:26.282Z,95313.39
2017-05-13T18:01:52.449Z,95320.45
2017-05-13T18:04:18.616Z,95322.29
2017-05-13T18:06:45.516Z,95323.31
2017-05-13T18:09:11.700Z,95325.62
2017-05-13T18:11:38.690Z,95328.13
2017-05-13T18:14:04.907Z,95325.61
2017-05-13T18:16:31.081Z,95326.23
2017-05-13T18:18:57.377Z,95328.86
2017-05-13T18:21:23.579Z,95332.77
2017-05-13T18:23:49.782Z,95339.59
2017-05-13T18:26:15.949Z,95338.83
2017-05-13T18:28:42.870Z,95337.12
2017-05-13T18:31:09.077Z,95336.80
2017-05-13T18:33:35.245Z,95345.41
2017-05-13T18:36:02.891Z,95348.64
2017-05-13T18:38:29.102Z,95356.09
2017-05-13T18:40:56.018Z,95356.11
2017-05-13T18:43:22.943Z,95361.52
2017-05-13T18:45:49.118Z,95363.56
2017-05-13T18:48:15.339Z,95370.45
2017-05-13T18:50:42.285Z,95370.38
2017-05-13T18:53:09.247Z,95379.80
2017-05-13T18:55:36.169Z,95381.30
2017-05-13T18:58:02.358Z,95376.97
2017-05-13T19:00:29.313Z,95385.73
2017-05-13T19:02:55.549Z,95383.67
2017-05-13T19:05:21.733Z,95387.41
2017-05-13T19:07:47.901Z,95394.98
2017-05-13T19:10:14.069Z,95396.28
2017-05-13T19:12:40.277Z,95395.45
2017-05-13T19:15:06.481Z,95405.50
2017-05-13T19:17:33.437Z,95408.67
2017-05-13T19:20:00.386Z,95418.57
2017-05-13T19:22:27.329Z,95412.00
2017-05-13T19:24:54.297Z,95413.65
2017-05-13T19:27:21.299Z,95414.73
2017-05-13T19:29:47.573Z,95418.19
2017-05-13T19:32:14.481Z,95421.83
2017-05-13T19:34:40.783Z,95423.92
2017-05-13T19:37:07.087Z,95429.97
2017-05-13T19:39:34.024Z,95435.63
2017-05-13T19:42:00.188Z,95440.13
2017-05-13T19:44:26.385Z,95442.37
2017-05-13T19:46:52.563Z,95441.85
2017-05-13T19:49:18.933Z,95437.95
2017-05-13T19:51:45.119Z,95438.74
2017-05-13T19:54:11.306Z,95441.75
2017-05-13T19:56:37.494Z,95446.47
2017-05-13T19:59:03.702Z,95445.23
2017-05-13T20:01:37.791Z,95444.91
2017-05-13T20:04:05.051Z,95446.98
2017-05-13T20:06:31.218Z,95451.86
2017-05-13T20:08:58.152Z,95458.05
2017-05-13T20:11:25.093Z,95453.57
2017-05-13T20:13:51.285Z,95460.67
2017-05-13T20:16:18.207Z,95464.77
2017-05-13T20:18:44.615Z,95466.66
2017-05-13T20:21:10.821Z,95468.53
2017-05-13T20:23:37.026Z,95471.35
2017-05-13T20:26:03.201Z,95478.44
2017-05-13T20:28:32.853Z,95472.85
2017-05-13T20:30:59.761Z,95476.16
2017-05-13T20:33:27.489Z,95475.98
2017-05-13T20:35:53.657Z,95477.66
2017-05-13T20:38:19.838Z,95473.18
2017-05-13T20:40:46.786Z,95472.98
2017-05-13T20:43:17.180Z,95474.67
2017-05-13T20:45:43.367Z,95476.70
2017-05-13T20:48:09.546Z,95477.27
2017-05-13T20:50:35.721Z,95472.97
2017-05-13T20:53:02.637Z,95479.31
2017-05-13T20:55:28.831Z,95476.14
2017-05-13T20:57:54.995Z,95481.73
2017-05-13T21:00:21.181Z,95481.92
2017-05-13T21:02:47.429Z,95487.52
2017-05-13T21:05:13.693Z,95492.74
2017-05-13T21:07:39.894Z,95492.70
2017-05-13T21:10:07.153Z,95489.12
2017-05-13T21:12:34.079Z,95492.83
2017-05-13T21:15:01.089Z,95500.23
2017-05-13T21:17:27.281Z,95499.85
2017-05-13T21:19:54.190Z,95504.68
2017-05-13T21:22:21.125Z,95507.62
2017-05-13T21:24:51.041Z,95511.91
2017-05-13T21:27:17.230Z,95513.83
2017-05-13T21:29:44.177Z,95514.41
2017-05-13T21:32:12.445Z,95522.23
2017-05-13T21:34:39.391Z,95518.11
2017-05-13T21:37:21.244Z,95521.83
2017-05-13T21:39:47.497Z,95526.25
2017-05-13T21:42:14.454Z,95522.91
2017-05-13T21:44:40.661Z,95524.02
2017-05-13T21:47:07.610Z,95528.55
2017-05-13T21:49:34.833Z,95533.60
2017-05-13T21:52:02.031Z,95530.50
2017-05-13T21:54:28.946Z,95544.94
2017-05-13T21:56:57.318Z,95540.33
2017-05-13T21:59:24.277Z,95543.33
2017-05-13T22:01:53.781Z,95540.75
2017-05-13T22:04:19.986Z,95546.53
2017-05-13T22:06:53.619Z,95549.18
2017-05-13T22:09:19.811Z,95549.34
2017-05-13T22:11:45.997Z,95554.38
2017-05-13T22:14:12.257Z,95556.20
2017-05-13T22:16:38.445Z,95560.30
2017-05-13T22:19:04.641Z,95558.38
2017-05-13T22:21:31.816Z,95568.62
2017-05-13T22:23:58.811Z,95570.67
2017-05-13T22:26:24.993Z,95572.55
2017-05-13T22:28:51.218Z,95577.59
2017-05-13T22:31:17.453Z,95576.09
2017-05-13T22:33:43.709Z,95569.88
2017-05-13T22:36:10.656Z,95573.42
2017-05-13T22:38:37.597Z,95579.36
2017-05-13T22:41:04.621Z,95580.49
2017-05-13T22:43:30.805Z,95582.54
2017-05-13T22:45:57.320Z,95587.37
2017-05-13T22:48:29.038Z,95591.04
2017-05-13T22:50:55.231Z,95585.41
2017-05-13T22:53:22.145Z,95574.90
2017-05-13T22:55:48.413Z,95572.99
2017-05-13T22:58:15.376Z,95571.27
2017-05-13T23:00:42.140Z,95572.92
2017-05-13T23:03:08.301Z,95575.92
2017-05-13T23:05:37.985Z,95577.02
2017-05-13T23:08:04.237Z,95576.47
2017-05-13T23:10:30.401Z,95575.16
2017-05-13T23:12:57.605Z,95581.68
2017-05-13T23:15:24.095Z,95579.27
2017-05-13T23:17:50.281Z,95577.58
2017-05-13T23:20:16.477Z,95587.09
2017-05-13T23:22:44.665Z,95610.47
2017-05-13T23:25:11.577Z,95603.85
2017-05-13T23:27:37.750Z,95602.33
2017-05-13T23:30:04.766Z,95605.97
2017-05-13T23:32:30.940Z,95608.82
2017-05-13T23:34:58.879Z,95609.67
2017-05-13T23:37:25.044Z,95617.87
2017-05-13T23:39:52.049Z,95620.14
2017-05-13T23:42:18.220Z,95621.34
2017-05-13T23:44:45.143Z,95623.42
2017-05-13T23:47:11.325Z,95623.80
2017-05-13T23:49:37.497Z,95625.12
2017-05-13T23:52:04.713Z,95617.84
2017-05-13T23:54:33.093Z,95620.90
2017-05-13T23:56:59.538Z,95629.50
2017-05-13T23:59:25.831Z,95629.69
